首页
METAR-TAF:

METAR-TAF

机场 :

圣但尼, 留尼汪岛

羅蘭加洛斯機場

纬度: 20-53S, 经度: 055-31E, 海拔: 21米

当前天气观测

该预报发布于25分钟前的06:30 UTC
风速4节,风向东转东北
温度 28°C
湿度 70%
气压 1012 hPa
能见度10公里或以上
少量云层高于2600英尺
散云层高于6000英尺

METAR: FMEE 250630Z 06004KT 9999 FEW026 SCT060 28/22 Q1012 NOSIG

时间: 10:55 (06:55 UTC)

预报

该预报发布于1小时和55分钟前的05:00 UTC
预报有效从25日的 06点(UTC)到 26日的 12点(UTC)
风速5节,风向
能见度10公里或以上
少量云层高于2200英尺
散云层高于5000英尺
短暂存在
从 25日的 10点(UTC)到 25日的 14点(UTC)
少量云层高于2200英尺, 塔状积云.

TAF: FMEE 250500Z 2506/2612 36005KT 9999 FEW022 SCT050 TEMPO 2510/2514 FEW022TCU

超过4000个机场的气象观测和天气预报(METAR&TAF报告)。

可查询的气象台以黄色和红色小点在地图上表示。

将鼠标移到小点上方,可查看气象台名称。

然后点击查看天气观测和预报。

如需切换地图:点击带黑十字的绿色按钮放大地图;点击带横线的绿色按钮缩小地图;或者点击绿色箭头查看邻近地区的地图。


METAR-TAF: